sensor_id;sensor_type;location;lat;lon;timestamp;pressure;altitude;pressure_sealevel;temperature;humidity
17230;BME280;8731;50.364;8.958;2023-07-09T00:00:31;100293.94;;;24.58;53.09
17230;BME280;8731;50.364;8.958;2023-07-09T00:04:53;100293.00;;;24.56;53.43
17230;BME280;8731;50.364;8.958;2023-07-09T00:09:17;100294.88;;;24.15;54.52
17230;BME280;8731;50.364;8.958;2023-07-09T00:13:41;100298.72;;;24.25;53.24
17230;BME280;8731;50.364;8.958;2023-07-09T00:18:04;100307.41;;;24.25;52.74
17230;BME280;8731;50.364;8.958;2023-07-09T00:22:29;100313.03;;;24.13;52.88
17230;BME280;8731;50.364;8.958;2023-07-09T00:26:51;100313.25;;;23.57;55.69
17230;BME280;8731;50.364;8.958;2023-07-09T00:31:16;100310.97;;;23.85;53.73
17230;BME280;8731;50.364;8.958;2023-07-09T00:35:40;100314.44;;;23.65;54.24
17230;BME280;8731;50.364;8.958;2023-07-09T00:40:03;100322.03;;;23.20;57.33
17230;BME280;8731;50.364;8.958;2023-07-09T00:44:29;100321.09;;;23.58;54.85
17230;BME280;8731;50.364;8.958;2023-07-09T00:48:59;100325.00;;;23.49;55.28
17230;BME280;8731;50.364;8.958;2023-07-09T00:53:29;100322.59;;;23.34;55.97
17230;BME280;8731;50.364;8.958;2023-07-09T00:57:55;100327.59;;;23.30;56.18
17230;BME280;8731;50.364;8.958;2023-07-09T01:02:21;100336.59;;;22.44;61.14
17230;BME280;8731;50.364;8.958;2023-07-09T01:06:47;100340.72;;;22.94;57.58
17230;BME280;8731;50.364;8.958;2023-07-09T01:11:17;100337.28;;;22.58;59.74
17230;BME280;8731;50.364;8.958;2023-07-09T01:15:42;100352.06;;;21.73;61.85
17230;BME280;8731;50.364;8.958;2023-07-09T01:20:07;100351.72;;;21.83;61.23
17230;BME280;8731;50.364;8.958;2023-07-09T01:24:50;100340.41;;;22.33;57.99
17230;BME280;8731;50.364;8.958;2023-07-09T01:29:15;100343.44;;;22.42;57.07
17230;BME280;8731;50.364;8.958;2023-07-09T01:33:38;100342.63;;;22.08;58.94
17230;BME280;8731;50.364;8.958;2023-07-09T01:38:02;100347.59;;;21.87;60.24
17230;BME280;8731;50.364;8.958;2023-07-09T01:42:31;100341.09;;;21.44;62.10
17230;BME280;8731;50.364;8.958;2023-07-09T01:46:54;100345.53;;;21.47;61.99
17230;BME280;8731;50.364;8.958;2023-07-09T01:51:16;100350.66;;;21.29;62.23
17230;BME280;8731;50.364;8.958;2023-07-09T01:55:39;100346.69;;;21.36;62.03
17230;BME280;8731;50.364;8.958;2023-07-09T02:00:06;100346.28;;;21.44;60.56
17230;BME280;8731;50.364;8.958;2023-07-09T02:04:34;100356.38;;;21.07;63.02
17230;BME280;8731;50.364;8.958;2023-07-09T02:08:56;100353.97;;;21.10;62.52
17230;BME280;8731;50.364;8.958;2023-07-09T02:13:19;100354.50;;;21.05;63.09
17230;BME280;8731;50.364;8.958;2023-07-09T02:17:43;100351.19;;;20.91;63.14
17230;BME280;8731;50.364;8.958;2023-07-09T02:22:06;100353.44;;;21.01;62.52
17230;BME280;8731;50.364;8.958;2023-07-09T02:26:29;100346.72;;;20.89;62.93
17230;BME280;8731;50.364;8.958;2023-07-09T02:30:52;100354.78;;;20.78;62.94
17230;BME280;8731;50.364;8.958;2023-07-09T02:35:15;100357.41;;;20.95;61.96
17230;BME280;8731;50.364;8.958;2023-07-09T02:39:38;100361.41;;;20.73;63.87
17230;BME280;8731;50.364;8.958;2023-07-09T02:44:00;100370.94;;;20.29;66.19
17230;BME280;8731;50.364;8.958;2023-07-09T02:48:23;100372.09;;;20.48;64.16
17230;BME280;8731;50.364;8.958;2023-07-09T02:52:47;100366.72;;;20.31;65.19
17230;BME280;8731;50.364;8.958;2023-07-09T02:57:09;100369.25;;;20.44;64.10
17230;BME280;8731;50.364;8.958;2023-07-09T03:01:33;100377.63;;;20.10;64.95
17230;BME280;8731;50.364;8.958;2023-07-09T03:05:56;100374.25;;;19.97;66.52
17230;BME280;8731;50.364;8.958;2023-07-09T03:10:20;100377.19;;;20.17;65.28
17230;BME280;8731;50.364;8.958;2023-07-09T03:14:42;100381.47;;;20.17;64.84
17230;BME280;8731;50.364;8.958;2023-07-09T03:19:08;100380.50;;;20.00;65.61
17230;BME280;8731;50.364;8.958;2023-07-09T03:23:30;100385.22;;;20.07;65.11
17230;BME280;8731;50.364;8.958;2023-07-09T03:27:54;100385.50;;;19.97;66.23
17230;BME280;8731;50.364;8.958;2023-07-09T03:32:16;100393.94;;;20.09;64.90
17230;BME280;8731;50.364;8.958;2023-07-09T03:36:40;100394.44;;;19.59;68.64
17230;BME280;8731;50.364;8.958;2023-07-09T03:41:03;100404.13;;;19.91;66.03
17230;BME280;8731;50.364;8.958;2023-07-09T03:45:28;100410.03;;;19.61;68.57
17230;BME280;8731;50.364;8.958;2023-07-09T03:49:50;100416.00;;;19.60;68.42
17230;BME280;8731;50.364;8.958;2023-07-09T03:54:13;100421.06;;;19.58;68.69
17230;BME280;8731;50.364;8.958;2023-07-09T03:58:35;100422.34;;;19.24;70.91
17230;BME280;8731;50.364;8.958;2023-07-09T04:03:00;100423.81;;;19.33;70.51
17230;BME280;8731;50.364;8.958;2023-07-09T04:07:22;100424.53;;;19.59;67.60
17230;BME280;8731;50.364;8.958;2023-07-09T04:11:45;100427.28;;;19.34;70.40
17230;BME280;8731;50.364;8.958;2023-07-09T04:16:07;100423.19;;;19.38;70.41
17230;BME280;8731;50.364;8.958;2023-07-09T04:20:32;100430.13;;;19.39;70.52
17230;BME280;8731;50.364;8.958;2023-07-09T04:24:55;100424.84;;;19.78;67.30
17230;BME280;8731;50.364;8.958;2023-07-09T04:29:18;100429.94;;;19.77;68.89
17230;BME280;8731;50.364;8.958;2023-07-09T04:33:40;100424.75;;;19.77;70.08
17230;BME280;8731;50.364;8.958;2023-07-09T04:38:04;100417.28;;;19.81;69.74
17230;BME280;8731;50.364;8.958;2023-07-09T04:42:28;100423.00;;;19.90;70.31
17230;BME280;8731;50.364;8.958;2023-07-09T04:46:51;100425.25;;;20.29;66.98
17230;BME280;8731;50.364;8.958;2023-07-09T04:51:13;100427.47;;;20.52;68.30
17230;BME280;8731;50.364;8.958;2023-07-09T04:55:37;100418.88;;;20.82;68.86
17230;BME280;8731;50.364;8.958;2023-07-09T04:59:59;100418.09;;;21.00;68.19
17230;BME280;8731;50.364;8.958;2023-07-09T05:04:22;100415.91;;;21.38;66.28
17230;BME280;8731;50.364;8.958;2023-07-09T05:08:44;100419.00;;;21.80;65.84
17230;BME280;8731;50.364;8.958;2023-07-09T05:13:09;100410.59;;;22.02;66.28
17230;BME280;8731;50.364;8.958;2023-07-09T05:17:32;100413.22;;;22.54;64.36
17230;BME280;8731;50.364;8.958;2023-07-09T05:21:54;100411.16;;;22.82;64.12
17230;BME280;8731;50.364;8.958;2023-07-09T05:26:16;100402.81;;;23.07;64.61
17230;BME280;8731;50.364;8.958;2023-07-09T05:30:42;100405.75;;;23.71;62.79
17230;BME280;8731;50.364;8.958;2023-07-09T05:35:05;100405.47;;;24.05;61.39
17230;BME280;8731;50.364;8.958;2023-07-09T05:39:28;100410.75;;;24.28;61.14
17230;BME280;8731;50.364;8.958;2023-07-09T05:43:51;100407.38;;;24.94;59.11
17230;BME280;8731;50.364;8.958;2023-07-09T05:48:15;100407.75;;;25.26;57.90
17230;BME280;8731;50.364;8.958;2023-07-09T05:52:37;100420.84;;;25.99;56.97
17230;BME280;8731;50.364;8.958;2023-07-09T05:57:00;100422.22;;;26.13;56.24
17230;BME280;8731;50.364;8.958;2023-07-09T06:01:22;100422.47;;;26.21;56.26
17230;BME280;8731;50.364;8.958;2023-07-09T06:05:46;100422.88;;;26.85;55.65
17230;BME280;8731;50.364;8.958;2023-07-09T06:10:09;100431.56;;;27.70;54.21
17230;BME280;8731;50.364;8.958;2023-07-09T06:14:32;100415.84;;;28.01;53.74
17230;BME280;8731;50.364;8.958;2023-07-09T06:18:55;100421.53;;;27.87;52.61
17230;BME280;8731;50.364;8.958;2023-07-09T06:23:19;100417.84;;;29.20;52.00
17230;BME280;8731;50.364;8.958;2023-07-09T06:27:41;100417.22;;;29.31;49.18
17230;BME280;8731;50.364;8.958;2023-07-09T06:32:04;100420.97;;;29.02;49.67
17230;BME280;8731;50.364;8.958;2023-07-09T06:36:27;100419.88;;;30.20;48.60
17230;BME280;8731;50.364;8.958;2023-07-09T06:40:52;100419.94;;;29.78;48.28
17230;BME280;8731;50.364;8.958;2023-07-09T06:45:14;100423.38;;;30.21;45.83
17230;BME280;8731;50.364;8.958;2023-07-09T06:49:37;100422.19;;;31.12;45.52
17230;BME280;8731;50.364;8.958;2023-07-09T06:53:59;100423.50;;;31.43;43.45
17230;BME280;8731;50.364;8.958;2023-07-09T06:58:23;100423.25;;;31.95;43.14
17230;BME280;8731;50.364;8.958;2023-07-09T07:02:47;100423.44;;;32.18;43.36
17230;BME280;8731;50.364;8.958;2023-07-09T07:07:10;100415.16;;;32.75;41.40
17230;BME280;8731;50.364;8.958;2023-07-09T07:11:32;100422.06;;;32.61;41.39
17230;BME280;8731;50.364;8.958;2023-07-09T07:15:56;100417.22;;;33.30;41.42
17230;BME280;8731;50.364;8.958;2023-07-09T07:20:18;100419.25;;;33.87;40.90
17230;BME280;8731;50.364;8.958;2023-07-09T07:24:41;100421.66;;;33.34;39.07
17230;BME280;8731;50.364;8.958;2023-07-09T07:29:03;100415.75;;;34.18;39.80
17230;BME280;8731;50.364;8.958;2023-07-09T07:33:27;100416.66;;;34.40;37.67
17230;BME280;8731;50.364;8.958;2023-07-09T07:37:49;100411.16;;;33.41;39.53
17230;BME280;8731;50.364;8.958;2023-07-09T07:42:11;100415.59;;;33.54;41.66
17230;BME280;8731;50.364;8.958;2023-07-09T07:46:34;100400.75;;;34.54;39.29
17230;BME280;8731;50.364;8.958;2023-07-09T07:51:00;100399.03;;;34.32;40.70
17230;BME280;8731;50.364;8.958;2023-07-09T07:55:23;100397.25;;;34.61;40.68
17230;BME280;8731;50.364;8.958;2023-07-09T07:59:46;100393.44;;;35.55;38.39
17230;BME280;8731;50.364;8.958;2023-07-09T08:04:08;100400.59;;;35.32;36.31
17230;BME280;8731;50.364;8.958;2023-07-09T08:08:32;100397.44;;;36.20;36.43
17230;BME280;8731;50.364;8.958;2023-07-09T08:12:54;100401.41;;;35.48;35.77
17230;BME280;8731;50.364;8.958;2023-07-09T08:17:17;100399.38;;;36.02;35.28
17230;BME280;8731;50.364;8.958;2023-07-09T08:21:39;100403.00;;;36.91;35.86
17230;BME280;8731;50.364;8.958;2023-07-09T08:26:03;100399.63;;;36.74;36.17
17230;BME280;8731;50.364;8.958;2023-07-09T08:30:26;100396.78;;;37.64;35.15
17230;BME280;8731;50.364;8.958;2023-07-09T08:34:48;100397.03;;;38.07;35.02
17230;BME280;8731;50.364;8.958;2023-07-09T08:39:10;100392.00;;;37.91;34.40
17230;BME280;8731;50.364;8.958;2023-07-09T08:43:50;100397.75;;;37.57;32.48
17230;BME280;8731;50.364;8.958;2023-07-09T08:48:29;100389.75;;;38.20;32.59
17230;BME280;8731;50.364;8.958;2023-07-09T08:52:57;100384.41;;;36.94;34.75
17230;BME280;8731;50.364;8.958;2023-07-09T08:57:22;100382.03;;;37.42;34.32
17230;BME280;8731;50.364;8.958;2023-07-09T09:01:52;100384.72;;;38.54;33.88
17230;BME280;8731;50.364;8.958;2023-07-09T09:06:21;100386.56;;;38.51;32.02
17230;BME280;8731;50.364;8.958;2023-07-09T09:10:48;100386.34;;;37.51;31.88
17230;BME280;8731;50.364;8.958;2023-07-09T09:15:21;100384.91;;;38.44;32.86
17230;BME280;8731;50.364;8.958;2023-07-09T09:19:47;100381.88;;;39.11;32.29
17230;BME280;8731;50.364;8.958;2023-07-09T09:24:17;100381.31;;;38.94;33.48
17230;BME280;8731;50.364;8.958;2023-07-09T09:28:43;100377.78;;;39.37;30.81
17230;BME280;8731;50.364;8.958;2023-07-09T09:33:07;100370.34;;;39.11;31.08
17230;BME280;8731;50.364;8.958;2023-07-09T09:37:33;100363.97;;;38.24;31.58
17230;BME280;8731;50.364;8.958;2023-07-09T09:41:57;100355.84;;;39.64;31.05
17230;BME280;8731;50.364;8.958;2023-07-09T09:46:22;100358.94;;;39.44;31.03
17230;BME280;8731;50.364;8.958;2023-07-09T09:50:46;100349.03;;;39.52;31.48
17230;BME280;8731;50.364;8.958;2023-07-09T09:55:19;100360.97;;;39.73;30.06
17230;BME280;8731;50.364;8.958;2023-07-09T09:59:46;100359.00;;;39.81;30.55
17230;BME280;8731;50.364;8.958;2023-07-09T10:04:10;100356.72;;;39.65;31.04
17230;BME280;8731;50.364;8.958;2023-07-09T10:08:46;100354.19;;;39.97;30.51
17230;BME280;8731;50.364;8.958;2023-07-09T10:13:22;100353.47;;;39.53;31.21
17230;BME280;8731;50.364;8.958;2023-07-09T10:17:54;100360.53;;;40.61;30.65
17230;BME280;8731;50.364;8.958;2023-07-09T10:22:28;100357.88;;;39.90;29.58
17230;BME280;8731;50.364;8.958;2023-07-09T10:27:08;100356.78;;;39.21;30.24
17230;BME280;8731;50.364;8.958;2023-07-09T10:31:40;100357.88;;;39.90;30.70
17230;BME280;8731;50.364;8.958;2023-07-09T10:36:18;100354.81;;;40.08;29.43
17230;BME280;8731;50.364;8.958;2023-07-09T10:40:49;100345.47;;;39.12;29.42
17230;BME280;8731;50.364;8.958;2023-07-09T10:45:16;100344.66;;;40.23;31.11
17230;BME280;8731;50.364;8.958;2023-07-09T10:49:46;100330.91;;;40.04;30.93
17230;BME280;8731;50.364;8.958;2023-07-09T10:54:15;100327.94;;;40.50;28.67
17230;BME280;8731;50.364;8.958;2023-07-09T10:58:52;100324.72;;;40.36;28.49
17230;BME280;8731;50.364;8.958;2023-07-09T11:03:24;100315.63;;;40.75;29.51
17230;BME280;8731;50.364;8.958;2023-07-09T11:08:01;100315.13;;;40.29;29.22
17230;BME280;8731;50.364;8.958;2023-07-09T11:12:31;100316.53;;;40.09;30.19
17230;BME280;8731;50.364;8.958;2023-07-09T11:17:01;100304.63;;;39.48;31.11
17230;BME280;8731;50.364;8.958;2023-07-09T11:21:25;100304.03;;;38.95;30.29
17230;BME280;8731;50.364;8.958;2023-07-09T11:26:01;100300.06;;;39.56;30.10
17230;BME280;8731;50.364;8.958;2023-07-09T11:30:26;100303.50;;;39.21;31.30
17230;BME280;8731;50.364;8.958;2023-07-09T11:34:50;100298.69;;;38.51;31.57
17230;BME280;8731;50.364;8.958;2023-07-09T11:39:19;100303.03;;;38.58;31.00
17230;BME280;8731;50.364;8.958;2023-07-09T11:43:48;100285.66;;;38.38;29.07
17230;BME280;8731;50.364;8.958;2023-07-09T11:48:17;100278.22;;;38.54;29.98
17230;BME280;8731;50.364;8.958;2023-07-09T11:52:51;100274.16;;;38.36;30.96
17230;BME280;8731;50.364;8.958;2023-07-09T11:57:16;100277.94;;;38.23;30.35
17230;BME280;8731;50.364;8.958;2023-07-09T12:01:43;100273.53;;;37.71;29.89
17230;BME280;8731;50.364;8.958;2023-07-09T12:06:16;100275.69;;;38.00;30.21
17230;BME280;8731;50.364;8.958;2023-07-09T12:10:42;100269.31;;;38.09;30.98
17230;BME280;8731;50.364;8.958;2023-07-09T12:15:15;100258.63;;;38.12;31.25
17230;BME280;8731;50.364;8.958;2023-07-09T12:19:42;100255.16;;;38.07;30.85
17230;BME280;8731;50.364;8.958;2023-07-09T12:24:17;100252.69;;;36.79;30.78
17230;BME280;8731;50.364;8.958;2023-07-09T12:28:41;100243.47;;;37.66;30.60
17230;BME280;8731;50.364;8.958;2023-07-09T12:33:07;100236.06;;;37.84;30.78
17230;BME280;8731;50.364;8.958;2023-07-09T12:37:31;100239.88;;;37.69;30.71
17230;BME280;8731;50.364;8.958;2023-07-09T12:41:55;100222.44;;;37.51;30.51
17230;BME280;8731;50.364;8.958;2023-07-09T12:46:20;100217.03;;;38.06;31.06
17230;BME280;8731;50.364;8.958;2023-07-09T12:50:48;100196.41;;;38.21;30.91
17230;BME280;8731;50.364;8.958;2023-07-09T12:55:20;100196.78;;;36.90;30.44
17230;BME280;8731;50.364;8.958;2023-07-09T12:59:45;100190.03;;;37.82;30.25
17230;BME280;8731;50.364;8.958;2023-07-09T13:04:11;100188.13;;;37.90;30.39
17230;BME280;8731;50.364;8.958;2023-07-09T13:08:41;100178.81;;;37.64;29.50
17230;BME280;8731;50.364;8.958;2023-07-09T13:13:06;100171.09;;;37.49;28.58
17230;BME280;8731;50.364;8.958;2023-07-09T13:17:33;100164.97;;;37.45;29.92
17230;BME280;8731;50.364;8.958;2023-07-09T13:21:55;100159.66;;;36.87;29.60
17230;BME280;8731;50.364;8.958;2023-07-09T13:26:18;100152.97;;;37.71;29.43
17230;BME280;8731;50.364;8.958;2023-07-09T13:30:41;100157.19;;;37.84;28.64
17230;BME280;8731;50.364;8.958;2023-07-09T13:35:13;100153.44;;;37.45;29.78
17230;BME280;8731;50.364;8.958;2023-07-09T13:39:36;100158.66;;;37.51;29.69
17230;BME280;8731;50.364;8.958;2023-07-09T13:43:59;100154.06;;;37.59;29.21
17230;BME280;8731;50.364;8.958;2023-07-09T13:48:24;100152.88;;;37.77;28.59
17230;BME280;8731;50.364;8.958;2023-07-09T13:52:49;100154.63;;;37.79;29.36
17230;BME280;8731;50.364;8.958;2023-07-09T13:57:13;100156.69;;;37.62;29.53
17230;BME280;8731;50.364;8.958;2023-07-09T14:01:38;100151.44;;;37.58;29.84
17230;BME280;8731;50.364;8.958;2023-07-09T14:06:02;100154.75;;;37.70;29.40
17230;BME280;8731;50.364;8.958;2023-07-09T14:10:25;100154.47;;;37.36;29.53
17230;BME280;8731;50.364;8.958;2023-07-09T14:14:49;100144.72;;;37.37;30.28
17230;BME280;8731;50.364;8.958;2023-07-09T14:19:13;100140.13;;;36.91;30.15
17230;BME280;8731;50.364;8.958;2023-07-09T14:23:38;100136.91;;;37.28;30.09
17230;BME280;8731;50.364;8.958;2023-07-09T14:28:09;100121.03;;;37.23;29.76
17230;BME280;8731;50.364;8.958;2023-07-09T14:32:35;100129.03;;;37.22;29.61
17230;BME280;8731;50.364;8.958;2023-07-09T14:36:59;100117.03;;;36.96;29.30
17230;BME280;8731;50.364;8.958;2023-07-09T14:41:30;100117.59;;;37.16;28.95
17230;BME280;8731;50.364;8.958;2023-07-09T14:45:53;100120.34;;;37.10;28.50
17230;BME280;8731;50.364;8.958;2023-07-09T14:50:15;100116.94;;;37.02;29.79
17230;BME280;8731;50.364;8.958;2023-07-09T14:54:38;100107.25;;;37.00;28.82
17230;BME280;8731;50.364;8.958;2023-07-09T14:59:02;100111.53;;;37.08;29.82
17230;BME280;8731;50.364;8.958;2023-07-09T15:03:26;100103.44;;;37.16;30.41
17230;BME280;8731;50.364;8.958;2023-07-09T15:07:48;100094.78;;;37.03;29.56
17230;BME280;8731;50.364;8.958;2023-07-09T15:12:16;100090.56;;;36.92;29.39
17230;BME280;8731;50.364;8.958;2023-07-09T15:16:41;100089.47;;;37.03;29.65
17230;BME280;8731;50.364;8.958;2023-07-09T15:21:05;100079.53;;;36.59;29.64
17230;BME280;8731;50.364;8.958;2023-07-09T15:25:28;100074.00;;;36.74;30.54
17230;BME280;8731;50.364;8.958;2023-07-09T15:29:51;100072.69;;;37.01;30.51
17230;BME280;8731;50.364;8.958;2023-07-09T15:34:16;100075.94;;;36.62;29.98
17230;BME280;8731;50.364;8.958;2023-07-09T15:38:39;100071.22;;;36.83;31.02
17230;BME280;8731;50.364;8.958;2023-07-09T15:43:05;100078.44;;;36.74;31.51
17230;BME280;8731;50.364;8.958;2023-07-09T15:47:29;100070.66;;;36.60;31.21
17230;BME280;8731;50.364;8.958;2023-07-09T15:51:53;100068.88;;;36.61;31.12
17230;BME280;8731;50.364;8.958;2023-07-09T15:56:20;100064.44;;;36.61;31.12
17230;BME280;8731;50.364;8.958;2023-07-09T16:00:47;100071.44;;;36.67;32.04
17230;BME280;8731;50.364;8.958;2023-07-09T16:05:24;100082.28;;;36.53;31.48
17230;BME280;8731;50.364;8.958;2023-07-09T16:09:51;100079.53;;;36.59;31.50
17230;BME280;8731;50.364;8.958;2023-07-09T16:14:22;100094.63;;;36.55;32.01
17230;BME280;8731;50.364;8.958;2023-07-09T16:18:46;100099.03;;;36.56;31.78
17230;BME280;8731;50.364;8.958;2023-07-09T16:23:15;100086.50;;;36.65;31.92
17230;BME280;8731;50.364;8.958;2023-07-09T16:27:41;100092.00;;;36.52;32.77
17230;BME280;8731;50.364;8.958;2023-07-09T16:32:05;100096.56;;;36.43;32.60
17230;BME280;8731;50.364;8.958;2023-07-09T16:36:29;100090.34;;;36.47;33.04
17230;BME280;8731;50.364;8.958;2023-07-09T16:40:52;100098.28;;;36.48;32.99
17230;BME280;8731;50.364;8.958;2023-07-09T16:45:16;100092.22;;;36.37;33.04
17230;BME280;8731;50.364;8.958;2023-07-09T16:49:41;100088.78;;;36.31;32.72
17230;BME280;8731;50.364;8.958;2023-07-09T16:54:09;100080.91;;;36.23;33.77
17230;BME280;8731;50.364;8.958;2023-07-09T16:58:34;100080.97;;;36.17;32.78
17230;BME280;8731;50.364;8.958;2023-07-09T17:02:58;100080.84;;;36.26;33.06
17230;BME280;8731;50.364;8.958;2023-07-09T17:07:23;100084.69;;;36.04;33.75
17230;BME280;8731;50.364;8.958;2023-07-09T17:11:49;100090.97;;;35.95;33.69
17230;BME280;8731;50.364;8.958;2023-07-09T17:16:16;100141.38;;;34.77;35.82
17230;BME280;8731;50.364;8.958;2023-07-09T17:20:42;100149.41;;;34.68;36.70
17230;BME280;8731;50.364;8.958;2023-07-09T17:25:17;100155.66;;;34.55;37.15
17230;BME280;8731;50.364;8.958;2023-07-09T17:29:46;100154.06;;;34.02;37.69
17230;BME280;8731;50.364;8.958;2023-07-09T17:34:11;100141.69;;;34.11;37.31
17230;BME280;8731;50.364;8.958;2023-07-09T17:38:40;100152.28;;;34.01;37.74
17230;BME280;8731;50.364;8.958;2023-07-09T17:43:16;100144.41;;;33.75;38.73
17230;BME280;8731;50.364;8.958;2023-07-09T17:47:40;100150.56;;;32.96;41.01
17230;BME280;8731;50.364;8.958;2023-07-09T17:52:07;100148.75;;;32.86;41.05
17230;BME280;8731;50.364;8.958;2023-07-09T17:56:36;100147.50;;;31.95;43.18
17230;BME280;8731;50.364;8.958;2023-07-09T18:01:01;100146.66;;;32.02;42.68
17230;BME280;8731;50.364;8.958;2023-07-09T18:05:27;100151.06;;;32.08;42.81
17230;BME280;8731;50.364;8.958;2023-07-09T18:09:52;100141.28;;;31.87;42.95
17230;BME280;8731;50.364;8.958;2023-07-09T18:14:27;100136.00;;;31.87;43.01
17230;BME280;8731;50.364;8.958;2023-07-09T18:18:55;100130.81;;;31.96;43.15
17230;BME280;8731;50.364;8.958;2023-07-09T18:23:22;100132.63;;;32.10;42.42
17230;BME280;8731;50.364;8.958;2023-07-09T18:27:47;100142.88;;;31.67;43.60
17230;BME280;8731;50.364;8.958;2023-07-09T18:32:16;100139.53;;;31.92;42.88
17230;BME280;8731;50.364;8.958;2023-07-09T18:36:40;100129.59;;;31.47;42.75
17230;BME280;8731;50.364;8.958;2023-07-09T18:41:08;100121.31;;;31.07;44.62
17230;BME280;8731;50.364;8.958;2023-07-09T18:45:34;100122.34;;;31.22;44.64
17230;BME280;8731;50.364;8.958;2023-07-09T18:49:58;100131.59;;;30.81;44.99
17230;BME280;8731;50.364;8.958;2023-07-09T18:54:21;100118.97;;;31.38;43.75
17230;BME280;8731;50.364;8.958;2023-07-09T18:58:43;100111.94;;;31.35;43.52
17230;BME280;8731;50.364;8.958;2023-07-09T19:03:12;100115.41;;;31.30;43.83
17230;BME280;8731;50.364;8.958;2023-07-09T19:07:37;100109.91;;;31.05;44.56
17230;BME280;8731;50.364;8.958;2023-07-09T19:11:59;100108.03;;;30.94;44.15
17230;BME280;8731;50.364;8.958;2023-07-09T19:16:31;100107.03;;;30.78;45.22
17230;BME280;8731;50.364;8.958;2023-07-09T19:20:55;100099.19;;;30.84;44.89
17230;BME280;8731;50.364;8.958;2023-07-09T19:25:22;100095.69;;;30.85;44.92
17230;BME280;8731;50.364;8.958;2023-07-09T19:29:46;100095.72;;;30.87;44.53
17230;BME280;8731;50.364;8.958;2023-07-09T19:34:12;100095.31;;;30.51;45.95
17230;BME280;8731;50.364;8.958;2023-07-09T19:38:39;100093.63;;;30.57;45.62
17230;BME280;8731;50.364;8.958;2023-07-09T19:43:03;100093.63;;;30.55;45.52
17230;BME280;8731;50.364;8.958;2023-07-09T19:47:28;100090.09;;;30.53;45.72
17230;BME280;8731;50.364;8.958;2023-07-09T19:51:57;100091.72;;;30.45;45.60
17230;BME280;8731;50.364;8.958;2023-07-09T19:56:19;100100.28;;;30.27;46.88
17230;BME280;8731;50.364;8.958;2023-07-09T20:00:44;100101.03;;;30.15;47.19
17230;BME280;8731;50.364;8.958;2023-07-09T20:05:12;100095.00;;;30.25;46.12
17230;BME280;8731;50.364;8.958;2023-07-09T20:09:36;100107.97;;;30.10;46.36
17230;BME280;8731;50.364;8.958;2023-07-09T20:13:58;100115.16;;;29.63;49.20
17230;BME280;8731;50.364;8.958;2023-07-09T20:18:22;100108.03;;;29.56;48.82
17230;BME280;8731;50.364;8.958;2023-07-09T20:22:45;100118.28;;;29.39;48.42
17230;BME280;8731;50.364;8.958;2023-07-09T20:27:11;100111.44;;;29.49;47.60
17230;BME280;8731;50.364;8.958;2023-07-09T20:31:35;100104.47;;;29.51;47.60
17230;BME280;8731;50.364;8.958;2023-07-09T20:35:58;100119.56;;;28.64;52.22
17230;BME280;8731;50.364;8.958;2023-07-09T20:40:22;100120.22;;;28.54;52.50
17230;BME280;8731;50.364;8.958;2023-07-09T20:44:45;100124.16;;;28.32;53.98
17230;BME280;8731;50.364;8.958;2023-07-09T20:49:19;100123.38;;;28.38;52.64
17230;BME280;8731;50.364;8.958;2023-07-09T20:53:44;100131.13;;;28.32;52.45
17230;BME280;8731;50.364;8.958;2023-07-09T20:58:11;100130.88;;;28.21;53.16
17230;BME280;8731;50.364;8.958;2023-07-09T21:02:36;100132.78;;;27.89;53.42
17230;BME280;8731;50.364;8.958;2023-07-09T21:06:59;100133.06;;;28.01;52.76
17230;BME280;8731;50.364;8.958;2023-07-09T21:11:23;100141.91;;;28.06;52.81
17230;BME280;8731;50.364;8.958;2023-07-09T21:15:48;100138.88;;;27.52;54.33
17230;BME280;8731;50.364;8.958;2023-07-09T21:20:14;100141.50;;;27.88;52.99
17230;BME280;8731;50.364;8.958;2023-07-09T21:24:38;100154.78;;;27.25;56.46
17230;BME280;8731;50.364;8.958;2023-07-09T21:29:03;100158.59;;;27.38;54.90
17230;BME280;8731;50.364;8.958;2023-07-09T21:33:27;100163.25;;;27.49;54.44
17230;BME280;8731;50.364;8.958;2023-07-09T21:37:52;100171.59;;;27.35;54.43
17230;BME280;8731;50.364;8.958;2023-07-09T21:42:18;100168.09;;;27.34;54.46
17230;BME280;8731;50.364;8.958;2023-07-09T21:46:42;100174.88;;;26.63;57.25
17230;BME280;8731;50.364;8.958;2023-07-09T21:51:08;100166.97;;;26.93;55.15
17230;BME280;8731;50.364;8.958;2023-07-09T21:55:31;100179.09;;;26.58;56.83
17230;BME280;8731;50.364;8.958;2023-07-09T21:59:54;100179.06;;;26.89;54.83
17230;BME280;8731;50.364;8.958;2023-07-09T22:04:24;100181.38;;;26.47;57.62
17230;BME280;8731;50.364;8.958;2023-07-09T22:08:51;100173.81;;;26.56;55.84
17230;BME280;8731;50.364;8.958;2023-07-09T22:13:14;100169.50;;;26.28;58.32
17230;BME280;8731;50.364;8.958;2023-07-09T22:17:38;100178.31;;;26.32;58.14
17230;BME280;8731;50.364;8.958;2023-07-09T22:22:01;100183.47;;;26.02;57.42
17230;BME280;8731;50.364;8.958;2023-07-09T22:26:30;100189.53;;;26.29;57.33
17230;BME280;8731;50.364;8.958;2023-07-09T22:30:53;100212.19;;;26.30;56.87
17230;BME280;8731;50.364;8.958;2023-07-09T22:35:15;100231.34;;;26.03;58.92
17230;BME280;8731;50.364;8.958;2023-07-09T22:39:39;100227.72;;;25.99;59.91
17230;BME280;8731;50.364;8.958;2023-07-09T22:44:01;100231.66;;;25.59;62.12
17230;BME280;8731;50.364;8.958;2023-07-09T22:48:24;100207.88;;;25.25;64.22
17230;BME280;8731;50.364;8.958;2023-07-09T22:52:47;100223.44;;;25.23;63.61
17230;BME280;8731;50.364;8.958;2023-07-09T22:57:10;100222.31;;;25.40;62.46
17230;BME280;8731;50.364;8.958;2023-07-09T23:01:33;100228.81;;;25.53;61.56
17230;BME280;8731;50.364;8.958;2023-07-09T23:05:57;100210.28;;;25.69;59.95
17230;BME280;8731;50.364;8.958;2023-07-09T23:10:20;100221.56;;;24.95;65.78
17230;BME280;8731;50.364;8.958;2023-07-09T23:14:44;100218.34;;;25.26;63.07
17230;BME280;8731;50.364;8.958;2023-07-09T23:19:16;100211.00;;;25.40;60.85
17230;BME280;8731;50.364;8.958;2023-07-09T23:23:43;100215.69;;;25.50;61.35